Ballantine, Montana
Current Conditions -  °F | °C
As of 8:53 PM on Thursday 18 Dec 2014 (Local Time) from KBIL Reporting Station
Clear Clear  
Wind Chill: -7°   Ceiling: Unl
Heat Index:   Visibility: 10mi
Dew Point: -7°   Wind: 22mph
Humidity: 59%   Direction: 230°SW
Pressure: 29.98"   Gusts: 28mph
Location:  45.95°N, 108.15°W
Report Text: KBIL 190353Z 23019G24KT 10SM CLR 00/M07 A2998 RMK AO2 SLP184 T00001072
Loading
Personal Weather Stations






























Interactive Weather Map New forecast layout! Learn more

10-Day Weather Forecast

Advertisements
Track Severe Weather on mobile